Terminal Aerodrome Forecast
Issued by NWS

Home | Current Version | Previous Version | Text Only | Print | Product List | Glossary Off
Versions: 1 2 3 4 5 6 7 8 9 10 11 12 13 14 15 16 17 18 19 20

000
FTUS43 KOAX 241700
TAFCDR
TAF
KCDR 241725Z 2418/2518 24013KT P6SM SKC
     FM242000 28012G18KT P6SM SCT100
     FM250200 26013KT P6SM SCT100=

USA.gov is the U.S. government's official web portal to all federal, state and local government web resources and services.